createdAt,value
2023-03-21T00:03:16.674Z,27.46
2023-03-21T00:07:14.577Z,27.55
2023-03-21T00:11:14.550Z,25.35
2023-03-21T00:15:14.482Z,28.09
2023-03-21T00:19:14.447Z,27.56
2023-03-21T00:23:14.357Z,27.49
2023-03-21T00:27:39.773Z,29.21
2023-03-21T00:31:15.327Z,28.28
2023-03-21T00:36:06.449Z,27.80
2023-03-21T00:39:15.219Z,26.92
2023-03-21T00:43:14.602Z,27.52
2023-03-21T00:47:14.160Z,27.49
2023-03-21T00:51:14.124Z,26.91
2023-03-21T00:55:14.102Z,27.58
2023-03-21T00:59:14.042Z,25.56
2023-03-21T01:03:23.582Z,27.29
2023-03-21T01:07:15.035Z,26.57
2023-03-21T01:11:14.020Z,28.20
2023-03-21T01:15:13.894Z,28.71
2023-03-21T01:19:24.236Z,29.31
2023-03-21T01:23:15.166Z,26.30
2023-03-21T01:27:13.811Z,28.33
2023-03-21T01:31:14.110Z,25.39
2023-03-21T01:35:13.754Z,28.62
2023-03-21T01:39:13.793Z,25.43
2023-03-21T01:43:13.668Z,27.06
2023-03-21T01:47:13.648Z,25.89
2023-03-21T01:51:13.607Z,27.06
2023-03-21T01:55:13.599Z,26.78
2023-03-21T01:59:13.573Z,27.55
2023-03-21T02:03:20.957Z,28.64
2023-03-21T02:07:14.597Z,25.81
2023-03-21T02:11:13.536Z,26.86
2023-03-21T02:15:13.474Z,27.38
2023-03-21T02:19:15.728Z,26.53
2023-03-21T02:23:13.425Z,25.96
2023-03-21T02:27:13.360Z,25.00
2023-03-21T02:31:13.336Z,29.36
2023-03-21T02:35:13.347Z,27.37
2023-03-21T02:39:13.373Z,26.20
2023-03-21T02:43:22.541Z,27.32
2023-03-21T02:47:14.344Z,26.32
2023-03-21T02:51:13.148Z,27.11
2023-03-21T02:55:13.092Z,26.50
2023-03-21T02:59:13.134Z,26.35
2023-03-21T03:03:24.803Z,27.71
2023-03-21T03:07:14.053Z,27.34
2023-03-21T03:11:13.008Z,28.30
2023-03-21T03:15:12.927Z,26.55
2023-03-21T03:19:12.954Z,27.57
2023-03-21T03:23:12.866Z,28.88
2023-03-21T03:27:12.843Z,27.94
2023-03-21T03:31:13.200Z,25.52
2023-03-21T03:35:12.836Z,28.76
2023-03-21T03:39:12.961Z,27.94
2023-03-21T03:43:13.028Z,27.05
2023-03-21T03:47:22.902Z,25.11
2023-03-21T03:51:14.100Z,26.41
2023-03-21T03:55:13.031Z,25.40
2023-03-21T03:59:12.978Z,26.69
2023-03-21T04:03:13.055Z,29.36
2023-03-21T04:07:12.966Z,27.55
2023-03-21T04:11:12.938Z,26.64
2023-03-21T04:15:13.014Z,27.07
2023-03-21T04:19:13.060Z,26.93
2023-03-21T04:23:13.121Z,25.91
2023-03-21T04:27:13.201Z,28.62
2023-03-21T04:31:24.362Z,25.08
2023-03-21T04:35:15.152Z,25.77
2023-03-21T04:39:13.214Z,27.04
2023-03-21T04:43:13.145Z,26.17
2023-03-21T04:47:13.159Z,25.00
2023-03-21T04:51:13.079Z,27.47
2023-03-21T04:55:13.039Z,27.95
2023-03-21T04:59:13.121Z,27.93
2023-03-21T05:03:13.208Z,27.05
2023-03-21T05:07:13.370Z,25.40
2023-03-21T05:11:13.390Z,27.26
2023-03-21T05:15:13.732Z,27.46
2023-03-21T05:19:13.595Z,28.29
2023-03-21T05:23:13.767Z,27.63
2023-03-21T05:27:13.797Z,31.94
2023-03-21T05:31:13.907Z,32.14
2023-03-21T05:35:13.891Z,35.60
2023-03-21T05:39:13.920Z,36.69
2023-03-21T05:43:13.848Z,35.26
2023-03-21T05:47:13.801Z,36.96
2023-03-21T05:51:13.838Z,36.16
2023-03-21T05:55:13.811Z,34.55
2023-03-21T05:59:13.796Z,33.65
2023-03-21T06:03:13.862Z,34.58
2023-03-21T06:07:13.900Z,33.04
2023-03-21T06:11:14.683Z,34.67
2023-03-21T06:15:14.019Z,33.55
2023-03-21T06:19:14.208Z,34.56
2023-03-21T06:23:14.367Z,32.72
2023-03-21T06:27:14.345Z,28.29
2023-03-21T06:31:15.375Z,31.04
2023-03-21T06:35:17.134Z,28.07
2023-03-21T06:39:14.297Z,31.77
2023-03-21T06:43:14.290Z,39.74
2023-03-21T06:47:14.196Z,55.60
2023-03-21T06:51:14.309Z,67.96
2023-03-21T06:55:14.631Z,78.98
2023-03-21T06:59:14.275Z,84.31
2023-03-21T07:03:14.250Z,69.17
2023-03-21T07:07:14.344Z,67.37
2023-03-21T07:11:14.312Z,72.13
2023-03-21T07:15:14.384Z,80.45
2023-03-21T07:19:14.349Z,33.20
2023-03-21T07:23:14.694Z,25.00
2023-03-21T07:27:14.619Z,32.39
2023-03-21T07:31:14.538Z,25.10
2023-03-21T07:35:14.540Z,26.12
2023-03-21T07:39:16.113Z,29.71
2023-03-21T07:43:14.422Z,25.27
2023-03-21T07:47:14.320Z,25.05
2023-03-21T07:51:14.265Z,25.26
2023-03-21T07:55:15.265Z,37.92
2023-03-21T07:59:14.340Z,52.71
2023-03-21T08:03:14.397Z,68.87
2023-03-21T08:07:14.219Z,88.05
2023-03-21T08:11:14.191Z,97.93
2023-03-21T08:15:14.067Z,111.61
2023-03-21T08:19:14.154Z,119.55
2023-03-21T08:23:14.133Z,124.10
2023-03-21T08:27:14.177Z,130.18
2023-03-21T08:31:14.170Z,129.15
2023-03-21T08:35:14.721Z,119.45
2023-03-21T08:39:14.329Z,86.58
2023-03-21T08:43:14.914Z,65.02
2023-03-21T08:47:14.058Z,48.76
2023-03-21T08:51:13.869Z,43.81
2023-03-21T08:55:13.906Z,41.57
2023-03-21T08:59:13.816Z,43.81
2023-03-21T09:03:13.782Z,48.36
2023-03-21T09:07:13.757Z,40.48
2023-03-21T09:11:13.716Z,42.98
2023-03-21T09:15:13.646Z,33.00
2023-03-21T09:19:13.780Z,26.58
2023-03-21T09:23:13.731Z,34.74
2023-03-21T09:27:14.703Z,48.48
2023-03-21T09:31:13.812Z,37.80
2023-03-21T09:35:13.569Z,29.53
2023-03-21T09:39:13.560Z,64.52
2023-03-21T09:43:13.490Z,100.87
2023-03-21T09:47:13.533Z,82.78
2023-03-21T09:51:13.508Z,65.52
2023-03-21T09:55:13.623Z,48.66
2023-03-21T09:59:13.706Z,41.33
2023-03-21T10:03:13.801Z,40.56
2023-03-21T10:07:13.798Z,41.90
2023-03-21T10:11:13.899Z,31.34
2023-03-21T10:15:13.942Z,32.23
2023-03-21T10:19:13.986Z,29.00
2023-03-21T10:23:14.004Z,22.52
2023-03-21T10:27:14.688Z,37.09
2023-03-21T10:31:14.024Z,33.95
2023-03-21T10:35:14.160Z,54.67
2023-03-21T10:39:13.986Z,57.24
2023-03-21T10:43:14.937Z,62.53
2023-03-21T10:47:14.571Z,73.74
2023-03-21T10:51:14.162Z,74.33
2023-03-21T10:55:14.234Z,76.84
2023-03-21T10:59:14.019Z,85.54
2023-03-21T11:03:14.055Z,80.66
2023-03-21T11:07:14.017Z,82.02
2023-03-21T11:11:14.204Z,83.54
2023-03-21T11:15:14.079Z,83.68
2023-03-21T11:19:14.233Z,81.39
2023-03-21T11:23:14.094Z,84.38
2023-03-21T11:27:14.150Z,84.71
2023-03-21T11:31:14.117Z,88.39
2023-03-21T11:35:14.241Z,95.94
2023-03-21T11:39:14.355Z,112.21
2023-03-21T11:43:14.332Z,117.00
2023-03-21T11:47:14.133Z,124.51
2023-03-21T11:51:14.113Z,133.63
2023-03-21T11:55:14.077Z,139.31
2023-03-21T11:59:14.043Z,144.03
2023-03-21T12:03:14.153Z,147.04
2023-03-21T12:07:14.582Z,154.33
2023-03-21T12:11:14.028Z,157.65
2023-03-21T12:15:13.976Z,164.25
2023-03-21T12:19:14.015Z,169.47
2023-03-21T12:23:13.884Z,169.65
2023-03-21T12:27:13.875Z,167.85
2023-03-21T12:31:14.625Z,165.05
2023-03-21T12:35:13.899Z,159.29
2023-03-21T12:39:13.959Z,156.89
2023-03-21T12:43:14.823Z,153.39
2023-03-21T12:47:13.778Z,150.83
2023-03-21T12:51:13.800Z,149.09
2023-03-21T12:55:13.801Z,146.92
2023-03-21T12:59:13.794Z,148.13
2023-03-21T13:03:13.714Z,143.81
2023-03-21T13:07:13.633Z,139.85
2023-03-21T13:11:13.699Z,140.88
2023-03-21T13:15:21.845Z,135.45
2023-03-21T13:19:14.576Z,134.74
2023-03-21T13:23:13.660Z,133.22
2023-03-21T13:27:13.724Z,136.65
2023-03-21T13:31:13.679Z,136.19
2023-03-21T13:35:13.720Z,130.87
2023-03-21T13:39:13.717Z,127.93
2023-03-21T13:43:16.208Z,123.72
2023-03-21T13:47:14.695Z,124.83
2023-03-21T13:51:13.890Z,124.48
2023-03-21T13:55:13.629Z,124.32
2023-03-21T13:59:13.712Z,116.75
2023-03-21T14:03:13.526Z,120.17
2023-03-21T14:07:13.585Z,123.45
2023-03-21T14:11:13.573Z,121.39
2023-03-21T14:15:16.835Z,122.30
2023-03-21T14:19:13.418Z,118.70
2023-03-21T14:23:13.390Z,117.05
2023-03-21T14:27:13.383Z,122.64
2023-03-21T14:31:13.493Z,111.75
2023-03-21T14:35:13.341Z,112.71
2023-03-21T14:39:13.257Z,109.95
2023-03-21T14:43:13.229Z,113.29
2023-03-21T14:47:13.238Z,107.43
2023-03-21T14:51:13.236Z,113.83
2023-03-21T14:55:13.101Z,111.10
2023-03-21T14:59:13.062Z,115.43
2023-03-21T15:03:13.219Z,107.73
2023-03-21T15:07:13.013Z,109.59
2023-03-21T15:11:13.121Z,111.15
2023-03-21T15:15:12.958Z,109.66
2023-03-21T15:19:13.031Z,106.51
2023-03-21T15:23:12.911Z,109.53
2023-03-21T15:27:12.940Z,107.71
2023-03-21T15:31:12.890Z,105.10
2023-03-21T15:35:13.287Z,106.82
2023-03-21T15:39:12.684Z,107.74
2023-03-21T15:43:12.660Z,108.98
2023-03-21T15:47:12.664Z,107.93
2023-03-21T15:51:12.692Z,101.79
2023-03-21T15:55:12.681Z,101.09
2023-03-21T15:59:12.850Z,101.57
2023-03-21T16:03:12.988Z,101.11
2023-03-21T16:07:13.114Z,103.04
2023-03-21T16:11:13.130Z,100.82
2023-03-21T16:15:13.262Z,99.67
2023-03-21T16:19:13.408Z,98.29
2023-03-21T16:23:13.505Z,98.69
2023-03-21T16:27:13.599Z,99.19
2023-03-21T16:31:13.861Z,97.17
2023-03-21T16:35:14.501Z,97.35
2023-03-21T16:39:14.058Z,97.13
2023-03-21T16:43:14.141Z,97.23
2023-03-21T16:47:14.264Z,95.52
2023-03-21T16:51:14.417Z,96.60
2023-03-21T16:55:14.696Z,93.67
2023-03-21T16:59:15.003Z,90.15
2023-03-21T17:03:14.913Z,88.48
2023-03-21T17:07:15.487Z,89.32
2023-03-21T17:11:15.146Z,88.04
2023-03-21T17:15:15.323Z,84.95
2023-03-21T17:19:15.452Z,86.84
2023-03-21T17:23:15.629Z,82.47
2023-03-21T17:27:15.868Z,81.65
2023-03-21T17:31:16.074Z,84.24
2023-03-21T17:35:16.166Z,102.44
2023-03-21T17:39:16.329Z,89.12
2023-03-21T17:43:17.435Z,120.65
2023-03-21T17:47:16.615Z,124.94
2023-03-21T17:51:16.780Z,108.90
2023-03-21T17:55:16.958Z,107.87
2023-03-21T17:59:19.923Z,109.60
2023-03-21T18:03:18.587Z,109.78
2023-03-21T18:07:29.731Z,106.13
2023-03-21T18:11:18.070Z,108.40
2023-03-21T18:15:19.200Z,104.94
2023-03-21T18:19:17.180Z,101.62
2023-03-21T18:23:17.238Z,102.24
2023-03-21T18:27:18.305Z,100.67
2023-03-21T18:31:19.755Z,98.39
2023-03-21T18:35:17.578Z,98.90
2023-03-21T18:39:17.613Z,96.03
2023-03-21T18:43:59.387Z,92.66
2023-03-21T18:47:18.473Z,95.69
2023-03-21T18:51:17.609Z,93.23
2023-03-21T18:55:18.655Z,90.65
2023-03-21T18:59:17.924Z,91.21
2023-03-21T19:03:30.148Z,92.35
2023-03-21T19:07:19.042Z,89.93
2023-03-21T19:11:17.989Z,90.86
2023-03-21T19:15:18.025Z,88.63
2023-03-21T19:19:17.907Z,86.44
2023-03-21T19:23:18.810Z,86.22
2023-03-21T19:27:17.838Z,84.77
2023-03-21T19:31:17.874Z,85.15
2023-03-21T19:35:17.812Z,84.51
2023-03-21T19:39:17.755Z,80.61
2023-03-21T19:43:32.270Z,81.37
2023-03-21T19:47:20.663Z,77.38
2023-03-21T19:51:28.236Z,78.83
2023-03-21T19:55:18.581Z,77.63
2023-03-21T19:59:17.541Z,75.28
2023-03-21T20:03:17.598Z,73.64
2023-03-21T20:07:17.552Z,74.51
2023-03-21T20:11:17.469Z,71.40
2023-03-21T20:15:21.359Z,72.74
2023-03-21T20:19:17.371Z,73.51
2023-03-21T20:23:17.382Z,71.39
2023-03-21T20:27:17.312Z,70.40
2023-03-21T20:31:19.122Z,69.82
2023-03-21T20:35:25.250Z,68.34
2023-03-21T20:39:18.202Z,68.65
2023-03-21T20:44:06.506Z,70.53
2023-03-21T20:47:18.227Z,64.65
2023-03-21T20:52:36.921Z,63.75
2023-03-21T20:55:18.123Z,64.13
2023-03-21T20:59:26.184Z,65.48
2023-03-21T21:03:18.129Z,65.69
2023-03-21T21:07:17.208Z,64.64
2023-03-21T21:12:02.905Z,62.38
2023-03-21T21:15:18.114Z,62.58
2023-03-21T21:19:17.054Z,61.08
2023-03-21T21:23:17.095Z,60.99
2023-03-21T21:27:17.034Z,60.41
2023-03-21T21:31:17.006Z,58.10
2023-03-21T21:35:17.056Z,60.07
2023-03-21T21:39:16.920Z,56.77
2023-03-21T21:43:16.894Z,57.22
2023-03-21T21:47:16.810Z,55.18
2023-03-21T21:51:16.816Z,56.05
2023-03-21T21:55:16.761Z,55.93
2023-03-21T21:59:16.809Z,55.11
2023-03-21T22:03:17.135Z,52.50
2023-03-21T22:07:16.976Z,52.00
2023-03-21T22:11:17.638Z,50.63
2023-03-21T22:15:16.914Z,51.44
2023-03-21T22:19:16.920Z,51.05
2023-03-21T22:23:16.868Z,49.76
2023-03-21T22:27:16.812Z,48.29
2023-03-21T22:31:16.850Z,49.07
2023-03-21T22:35:16.830Z,48.12
2023-03-21T22:39:16.847Z,49.70
2023-03-21T22:43:16.806Z,45.40
2023-03-21T22:47:16.778Z,47.41
2023-03-21T22:51:16.766Z,45.23
2023-03-21T22:55:16.721Z,43.20
2023-03-21T22:59:16.700Z,43.01
2023-03-21T23:03:16.905Z,43.13
2023-03-21T23:07:16.643Z,41.74
2023-03-21T23:11:16.575Z,42.70
2023-03-21T23:15:16.539Z,40.85
2023-03-21T23:19:16.482Z,40.56
2023-03-21T23:23:17.609Z,39.44
2023-03-21T23:27:16.696Z,40.15
2023-03-21T23:31:16.839Z,37.71
2023-03-21T23:35:16.954Z,36.31
2023-03-21T23:39:16.985Z,35.64
2023-03-21T23:43:17.104Z,35.71
2023-03-21T23:47:17.138Z,36.86
2023-03-21T23:51:17.199Z,34.43
2023-03-21T23:55:17.331Z,32.92
2023-03-21T23:59:17.479Z,34.66
